sensor_id;sensor_type;location;lat;lon;timestamp;P1;durP1;ratioP1;P2;durP2;ratioP2
57023;SDS011;42916;54.346;18.562;2023-02-28T00:01:28;132.30;;;51.60;;
57023;SDS011;42916;54.346;18.562;2023-02-28T00:03:55;149.40;;;56.40;;
57023;SDS011;42916;54.346;18.562;2023-02-28T00:06:22;147.00;;;56.20;;
57023;SDS011;42916;54.346;18.562;2023-02-28T00:08:50;147.70;;;53.70;;
57023;SDS011;42916;54.346;18.562;2023-02-28T00:11:17;138.10;;;53.70;;
57023;SDS011;42916;54.346;18.562;2023-02-28T00:13:45;141.30;;;53.30;;
57023;SDS011;42916;54.346;18.562;2023-02-28T00:16:14;136.10;;;51.30;;
57023;SDS011;42916;54.346;18.562;2023-02-28T00:18:44;130.50;;;51.50;;
57023;SDS011;42916;54.346;18.562;2023-02-28T00:23:40;120.40;;;43.60;;
57023;SDS011;42916;54.346;18.562;2023-02-28T00:26:07;127.60;;;47.10;;
57023;SDS011;42916;54.346;18.562;2023-02-28T00:28:34;120.70;;;49.70;;
57023;SDS011;42916;54.346;18.562;2023-02-28T00:31:02;126.50;;;49.80;;
57023;SDS011;42916;54.346;18.562;2023-02-28T00:33:29;122.40;;;49.30;;
57023;SDS011;42916;54.346;18.562;2023-02-28T00:36:06;133.80;;;47.80;;
57023;SDS011;42916;54.346;18.562;2023-02-28T00:38:36;111.00;;;45.70;;
57023;SDS011;42916;54.346;18.562;2023-02-28T00:41:04;105.80;;;44.20;;
57023;SDS011;42916;54.346;18.562;2023-02-28T00:43:32;96.90;;;39.10;;
57023;SDS011;42916;54.346;18.562;2023-02-28T00:46:00;132.30;;;47.30;;
57023;SDS011;42916;54.346;18.562;2023-02-28T00:48:27;105.50;;;44.00;;
57023;SDS011;42916;54.346;18.562;2023-02-28T00:50:54;119.60;;;46.00;;
57023;SDS011;42916;54.346;18.562;2023-02-28T00:53:21;121.20;;;47.40;;
57023;SDS011;42916;54.346;18.562;2023-02-28T00:55:49;127.30;;;49.90;;
57023;SDS011;42916;54.346;18.562;2023-02-28T00:58:17;121.00;;;46.80;;
57023;SDS011;42916;54.346;18.562;2023-02-28T01:00:44;109.20;;;45.40;;
57023;SDS011;42916;54.346;18.562;2023-02-28T01:03:16;116.60;;;47.80;;
57023;SDS011;42916;54.346;18.562;2023-02-28T01:05:44;109.10;;;45.70;;
57023;SDS011;42916;54.346;18.562;2023-02-28T01:08:11;117.00;;;45.20;;
57023;SDS011;42916;54.346;18.562;2023-02-28T01:10:40;128.90;;;48.70;;
57023;SDS011;42916;54.346;18.562;2023-02-28T01:13:07;117.80;;;45.20;;
57023;SDS011;42916;54.346;18.562;2023-02-28T01:18:08;108.10;;;40.40;;
57023;SDS011;42916;54.346;18.562;2023-02-28T01:20:36;105.30;;;42.50;;
57023;SDS011;42916;54.346;18.562;2023-02-28T01:23:04;109.00;;;42.50;;
57023;SDS011;42916;54.346;18.562;2023-02-28T01:25:31;110.20;;;41.40;;
57023;SDS011;42916;54.346;18.562;2023-02-28T01:28:03;120.70;;;43.40;;
57023;SDS011;42916;54.346;18.562;2023-02-28T01:30:30;107.30;;;42.00;;
57023;SDS011;42916;54.346;18.562;2023-02-28T01:32:58;100.10;;;40.40;;
57023;SDS011;42916;54.346;18.562;2023-02-28T01:35:25;107.60;;;42.20;;
57023;SDS011;42916;54.346;18.562;2023-02-28T01:37:52;105.10;;;42.60;;
57023;SDS011;42916;54.346;18.562;2023-02-28T01:40:19;130.40;;;50.10;;
57023;SDS011;42916;54.346;18.562;2023-02-28T01:42:46;112.80;;;44.90;;
57023;SDS011;42916;54.346;18.562;2023-02-28T01:48:05;112.80;;;47.00;;
57023;SDS011;42916;54.346;18.562;2023-02-28T01:50:36;108.90;;;44.50;;
57023;SDS011;42916;54.346;18.562;2023-02-28T01:53:06;126.10;;;44.90;;
57023;SDS011;42916;54.346;18.562;2023-02-28T01:55:36;104.20;;;43.90;;
57023;SDS011;42916;54.346;18.562;2023-02-28T01:58:05;112.10;;;43.90;;
57023;SDS011;42916;54.346;18.562;2023-02-28T02:00:33;113.90;;;44.40;;
57023;SDS011;42916;54.346;18.562;2023-02-28T02:03:05;102.30;;;38.40;;
57023;SDS011;42916;54.346;18.562;2023-02-28T02:05:36;112.40;;;42.10;;
57023;SDS011;42916;54.346;18.562;2023-02-28T02:08:11;122.00;;;47.20;;
57023;SDS011;42916;54.346;18.562;2023-02-28T02:10:48;108.10;;;45.50;;
57023;SDS011;42916;54.346;18.562;2023-02-28T02:18:59;104.30;;;41.80;;
57023;SDS011;42916;54.346;18.562;2023-02-28T02:24:29;103.90;;;41.70;;
57023;SDS011;42916;54.346;18.562;2023-02-28T02:36:27;102.50;;;38.10;;
57023;SDS011;42916;54.346;18.562;2023-02-28T02:41:47;87.00;;;33.80;;
57023;SDS011;42916;54.346;18.562;2023-02-28T02:46:50;79.40;;;30.20;;
57023;SDS011;42916;54.346;18.562;2023-02-28T02:49:25;77.90;;;30.30;;
57023;SDS011;42916;54.346;18.562;2023-02-28T02:51:55;80.20;;;29.80;;
57023;SDS011;42916;54.346;18.562;2023-02-28T02:54:30;75.70;;;29.30;;
57023;SDS011;42916;54.346;18.562;2023-02-28T02:57:01;73.40;;;29.10;;
57023;SDS011;42916;54.346;18.562;2023-02-28T02:59:32;76.80;;;29.80;;
57023;SDS011;42916;54.346;18.562;2023-02-28T03:02:03;75.00;;;31.00;;
57023;SDS011;42916;54.346;18.562;2023-02-28T03:04:34;68.50;;;28.00;;
57023;SDS011;42916;54.346;18.562;2023-02-28T03:07:08;74.20;;;30.10;;
57023;SDS011;42916;54.346;18.562;2023-02-28T03:09:35;80.60;;;29.90;;
57023;SDS011;42916;54.346;18.562;2023-02-28T03:12:02;79.90;;;34.00;;
57023;SDS011;42916;54.346;18.562;2023-02-28T03:14:55;71.30;;;30.60;;
57023;SDS011;42916;54.346;18.562;2023-02-28T03:17:53;81.10;;;31.50;;
57023;SDS011;42916;54.346;18.562;2023-02-28T03:20:37;91.60;;;35.00;;
57023;SDS011;42916;54.346;18.562;2023-02-28T03:23:23;81.40;;;34.10;;
57023;SDS011;42916;54.346;18.562;2023-02-28T03:26:19;86.90;;;34.10;;
57023;SDS011;42916;54.346;18.562;2023-02-28T03:28:55;90.10;;;34.60;;
57023;SDS011;42916;54.346;18.562;2023-02-28T03:31:30;99.30;;;36.70;;
57023;SDS011;42916;54.346;18.562;2023-02-28T03:34:08;91.80;;;35.10;;
57023;SDS011;42916;54.346;18.562;2023-02-28T03:36:45;84.50;;;36.30;;
57023;SDS011;42916;54.346;18.562;2023-02-28T03:39:16;79.00;;;33.00;;
57023;SDS011;42916;54.346;18.562;2023-02-28T03:41:55;88.00;;;34.00;;
57023;SDS011;42916;54.346;18.562;2023-02-28T03:44:39;79.90;;;32.60;;
57023;SDS011;42916;54.346;18.562;2023-02-28T03:52:53;94.40;;;35.60;;
57023;SDS011;42916;54.346;18.562;2023-02-28T03:55:32;87.40;;;34.10;;
57023;SDS011;42916;54.346;18.562;2023-02-28T03:58:06;92.70;;;33.80;;
57023;SDS011;42916;54.346;18.562;2023-02-28T04:00:49;88.10;;;34.30;;
57023;SDS011;42916;54.346;18.562;2023-02-28T04:03:22;88.00;;;32.90;;
57023;SDS011;42916;54.346;18.562;2023-02-28T04:05:53;88.30;;;33.90;;
57023;SDS011;42916;54.346;18.562;2023-02-28T04:08:22;86.10;;;33.80;;
57023;SDS011;42916;54.346;18.562;2023-02-28T04:11:00;85.00;;;32.50;;
57023;SDS011;42916;54.346;18.562;2023-02-28T04:13:31;82.10;;;33.20;;
57023;SDS011;42916;54.346;18.562;2023-02-28T04:15:57;83.00;;;29.60;;
57023;SDS011;42916;54.346;18.562;2023-02-28T04:18:24;88.10;;;34.00;;
57023;SDS011;42916;54.346;18.562;2023-02-28T04:20:51;85.20;;;35.80;;
57023;SDS011;42916;54.346;18.562;2023-02-28T04:23:18;81.80;;;34.20;;
57023;SDS011;42916;54.346;18.562;2023-02-28T04:25:45;80.60;;;32.40;;
57023;SDS011;42916;54.346;18.562;2023-02-28T04:28:12;82.60;;;32.00;;
57023;SDS011;42916;54.346;18.562;2023-02-28T04:30:39;79.10;;;32.60;;
57023;SDS011;42916;54.346;18.562;2023-02-28T04:33:06;70.80;;;29.50;;
57023;SDS011;42916;54.346;18.562;2023-02-28T04:35:33;68.40;;;30.60;;
57023;SDS011;42916;54.346;18.562;2023-02-28T04:38:00;78.70;;;31.00;;
57023;SDS011;42916;54.346;18.562;2023-02-28T04:40:27;73.50;;;30.40;;
57023;SDS011;42916;54.346;18.562;2023-02-28T04:42:54;77.30;;;30.70;;
57023;SDS011;42916;54.346;18.562;2023-02-28T04:45:21;73.30;;;30.50;;
57023;SDS011;42916;54.346;18.562;2023-02-28T04:47:48;67.60;;;28.50;;
57023;SDS011;42916;54.346;18.562;2023-02-28T04:50:15;78.50;;;29.60;;
57023;SDS011;42916;54.346;18.562;2023-02-28T04:52:42;71.40;;;29.50;;
57023;SDS011;42916;54.346;18.562;2023-02-28T04:55:09;69.40;;;28.10;;
57023;SDS011;42916;54.346;18.562;2023-02-28T04:57:36;61.10;;;27.20;;
57023;SDS011;42916;54.346;18.562;2023-02-28T05:00:03;63.70;;;27.40;;
57023;SDS011;42916;54.346;18.562;2023-02-28T05:05:01;65.30;;;26.70;;
57023;SDS011;42916;54.346;18.562;2023-02-28T05:07:28;65.20;;;27.80;;
57023;SDS011;42916;54.346;18.562;2023-02-28T05:09:54;63.00;;;27.80;;
57023;SDS011;42916;54.346;18.562;2023-02-28T05:12:21;60.90;;;26.90;;
57023;SDS011;42916;54.346;18.562;2023-02-28T05:14:48;69.00;;;27.20;;
57023;SDS011;42916;54.346;18.562;2023-02-28T05:17:15;67.50;;;26.80;;
57023;SDS011;42916;54.346;18.562;2023-02-28T05:19:42;65.50;;;27.20;;
57023;SDS011;42916;54.346;18.562;2023-02-28T05:22:13;62.90;;;27.30;;
57023;SDS011;42916;54.346;18.562;2023-02-28T05:24:43;63.20;;;25.80;;
57023;SDS011;42916;54.346;18.562;2023-02-28T05:27:10;62.30;;;25.80;;
57023;SDS011;42916;54.346;18.562;2023-02-28T05:29:37;67.00;;;26.60;;
57023;SDS011;42916;54.346;18.562;2023-02-28T05:32:09;65.40;;;25.90;;
57023;SDS011;42916;54.346;18.562;2023-02-28T05:34:37;60.90;;;23.70;;
57023;SDS011;42916;54.346;18.562;2023-02-28T05:37:06;53.00;;;23.70;;
57023;SDS011;42916;54.346;18.562;2023-02-28T05:39:38;62.60;;;25.10;;
57023;SDS011;42916;54.346;18.562;2023-02-28T05:42:05;59.30;;;25.50;;
57023;SDS011;42916;54.346;18.562;2023-02-28T05:44:33;55.40;;;24.80;;
57023;SDS011;42916;54.346;18.562;2023-02-28T05:47:00;60.00;;;25.40;;
57023;SDS011;42916;54.346;18.562;2023-02-28T05:49:27;58.20;;;24.50;;
57023;SDS011;42916;54.346;18.562;2023-02-28T05:51:55;53.90;;;23.20;;
57023;SDS011;42916;54.346;18.562;2023-02-28T05:54:22;51.80;;;21.50;;
57023;SDS011;42916;54.346;18.562;2023-02-28T05:56:49;55.40;;;24.00;;
57023;SDS011;42916;54.346;18.562;2023-02-28T05:59:16;51.20;;;21.70;;
57023;SDS011;42916;54.346;18.562;2023-02-28T06:01:43;53.50;;;22.30;;
57023;SDS011;42916;54.346;18.562;2023-02-28T06:04:15;61.50;;;22.90;;
57023;SDS011;42916;54.346;18.562;2023-02-28T06:06:45;58.60;;;24.10;;
57023;SDS011;42916;54.346;18.562;2023-02-28T06:09:13;51.10;;;21.40;;
57023;SDS011;42916;54.346;18.562;2023-02-28T06:11:41;54.20;;;21.40;;
57023;SDS011;42916;54.346;18.562;2023-02-28T06:14:12;52.80;;;22.90;;
57023;SDS011;42916;54.346;18.562;2023-02-28T06:16:41;50.80;;;23.30;;
57023;SDS011;42916;54.346;18.562;2023-02-28T06:19:09;46.70;;;20.80;;
57023;SDS011;42916;54.346;18.562;2023-02-28T06:21:37;48.20;;;20.40;;
57023;SDS011;42916;54.346;18.562;2023-02-28T06:24:04;49.20;;;19.10;;
57023;SDS011;42916;54.346;18.562;2023-02-28T06:26:31;52.70;;;22.30;;
57023;SDS011;42916;54.346;18.562;2023-02-28T06:28:59;41.80;;;17.90;;
57023;SDS011;42916;54.346;18.562;2023-02-28T06:31:27;46.70;;;21.10;;
57023;SDS011;42916;54.346;18.562;2023-02-28T06:33:55;53.20;;;21.60;;
57023;SDS011;42916;54.346;18.562;2023-02-28T06:36:22;43.60;;;19.30;;
57023;SDS011;42916;54.346;18.562;2023-02-28T06:38:49;45.10;;;18.70;;
57023;SDS011;42916;54.346;18.562;2023-02-28T06:41:21;38.40;;;16.70;;
57023;SDS011;42916;54.346;18.562;2023-02-28T06:43:50;45.90;;;17.80;;
57023;SDS011;42916;54.346;18.562;2023-02-28T06:46:17;39.60;;;18.40;;
57023;SDS011;42916;54.346;18.562;2023-02-28T06:48:44;49.60;;;20.40;;
57023;SDS011;42916;54.346;18.562;2023-02-28T06:51:18;48.90;;;20.00;;
57023;SDS011;42916;54.346;18.562;2023-02-28T06:53:50;46.00;;;19.30;;
57023;SDS011;42916;54.346;18.562;2023-02-28T06:56:18;50.60;;;20.20;;
57023;SDS011;42916;54.346;18.562;2023-02-28T06:58:49;42.90;;;18.60;;
57023;SDS011;42916;54.346;18.562;2023-02-28T07:01:19;51.60;;;19.70;;
57023;SDS011;42916;54.346;18.562;2023-02-28T07:03:46;47.90;;;19.10;;
57023;SDS011;42916;54.346;18.562;2023-02-28T07:06:19;46.80;;;19.00;;
57023;SDS011;42916;54.346;18.562;2023-02-28T07:08:52;47.40;;;18.50;;
57023;SDS011;42916;54.346;18.562;2023-02-28T07:11:20;43.40;;;16.60;;
57023;SDS011;42916;54.346;18.562;2023-02-28T07:13:49;43.50;;;19.60;;
57023;SDS011;42916;54.346;18.562;2023-02-28T07:16:17;46.90;;;19.80;;
57023;SDS011;42916;54.346;18.562;2023-02-28T07:18:44;44.20;;;18.90;;
57023;SDS011;42916;54.346;18.562;2023-02-28T07:21:12;46.40;;;19.30;;
57023;SDS011;42916;54.346;18.562;2023-02-28T07:23:39;39.70;;;18.50;;
57023;SDS011;42916;54.346;18.562;2023-02-28T07:26:06;39.70;;;20.80;;
57023;SDS011;42916;54.346;18.562;2023-02-28T07:28:37;49.90;;;20.70;;
57023;SDS011;42916;54.346;18.562;2023-02-28T07:31:05;46.50;;;21.50;;
57023;SDS011;42916;54.346;18.562;2023-02-28T07:33:32;43.20;;;21.30;;
57023;SDS011;42916;54.346;18.562;2023-02-28T07:36:01;47.90;;;21.30;;
57023;SDS011;42916;54.346;18.562;2023-02-28T07:38:29;56.20;;;22.20;;
57023;SDS011;42916;54.346;18.562;2023-02-28T07:40:56;47.00;;;22.20;;
57023;SDS011;42916;54.346;18.562;2023-02-28T07:43:23;60.40;;;23.90;;
57023;SDS011;42916;54.346;18.562;2023-02-28T07:45:50;45.40;;;22.20;;
57023;SDS011;42916;54.346;18.562;2023-02-28T07:48:17;40.80;;;19.10;;
57023;SDS011;42916;54.346;18.562;2023-02-28T07:50:44;41.90;;;18.20;;
57023;SDS011;42916;54.346;18.562;2023-02-28T07:53:14;33.30;;;16.70;;
57023;SDS011;42916;54.346;18.562;2023-02-28T07:55:44;27.00;;;13.20;;
57023;SDS011;42916;54.346;18.562;2023-02-28T07:58:11;22.80;;;11.40;;
57023;SDS011;42916;54.346;18.562;2023-02-28T08:00:38;24.80;;;11.60;;
57023;SDS011;42916;54.346;18.562;2023-02-28T08:03:05;26.40;;;10.90;;
57023;SDS011;42916;54.346;18.562;2023-02-28T08:05:32;23.90;;;10.50;;
57023;SDS011;42916;54.346;18.562;2023-02-28T08:07:59;23.90;;;10.80;;
57023;SDS011;42916;54.346;18.562;2023-02-28T08:10:26;22.70;;;10.30;;
57023;SDS011;42916;54.346;18.562;2023-02-28T08:12:52;23.00;;;10.20;;
57023;SDS011;42916;54.346;18.562;2023-02-28T08:15:19;22.70;;;9.70;;
57023;SDS011;42916;54.346;18.562;2023-02-28T08:17:46;22.20;;;9.50;;
57023;SDS011;42916;54.346;18.562;2023-02-28T08:20:13;18.10;;;7.90;;
57023;SDS011;42916;54.346;18.562;2023-02-28T08:22:40;22.60;;;8.90;;
57023;SDS011;42916;54.346;18.562;2023-02-28T08:25:08;23.10;;;8.60;;
57023;SDS011;42916;54.346;18.562;2023-02-28T08:27:35;16.40;;;7.40;;
57023;SDS011;42916;54.346;18.562;2023-02-28T08:30:02;18.90;;;8.60;;
57023;SDS011;42916;54.346;18.562;2023-02-28T08:32:30;20.60;;;9.20;;
57023;SDS011;42916;54.346;18.562;2023-02-28T08:34:59;16.70;;;8.30;;
57023;SDS011;42916;54.346;18.562;2023-02-28T08:37:26;20.60;;;9.00;;
57023;SDS011;42916;54.346;18.562;2023-02-28T08:39:53;21.50;;;9.60;;
57023;SDS011;42916;54.346;18.562;2023-02-28T08:42:20;18.90;;;8.30;;
57023;SDS011;42916;54.346;18.562;2023-02-28T08:44:47;23.50;;;8.20;;
57023;SDS011;42916;54.346;18.562;2023-02-28T08:47:14;16.70;;;7.30;;
57023;SDS011;42916;54.346;18.562;2023-02-28T08:49:40;15.00;;;6.60;;
57023;SDS011;42916;54.346;18.562;2023-02-28T08:52:07;15.70;;;6.50;;
57023;SDS011;42916;54.346;18.562;2023-02-28T08:54:35;18.50;;;7.30;;
57023;SDS011;42916;54.346;18.562;2023-02-28T08:57:03;16.70;;;7.50;;
57023;SDS011;42916;54.346;18.562;2023-02-28T08:59:30;20.90;;;8.30;;
57023;SDS011;42916;54.346;18.562;2023-02-28T09:01:57;18.70;;;8.20;;
57023;SDS011;42916;54.346;18.562;2023-02-28T09:04:24;19.40;;;9.20;;
57023;SDS011;42916;54.346;18.562;2023-02-28T09:06:51;19.00;;;8.90;;
57023;SDS011;42916;54.346;18.562;2023-02-28T09:09:18;18.40;;;8.30;;
57023;SDS011;42916;54.346;18.562;2023-02-28T09:11:45;20.80;;;9.30;;
57023;SDS011;42916;54.346;18.562;2023-02-28T09:14:12;17.00;;;7.20;;
57023;SDS011;42916;54.346;18.562;2023-02-28T09:16:38;18.00;;;8.00;;
57023;SDS011;42916;54.346;18.562;2023-02-28T09:19:05;18.70;;;8.50;;
57023;SDS011;42916;54.346;18.562;2023-02-28T09:21:32;19.70;;;8.40;;
57023;SDS011;42916;54.346;18.562;2023-02-28T09:23:59;18.10;;;9.00;;
57023;SDS011;42916;54.346;18.562;2023-02-28T09:26:27;18.70;;;9.30;;
57023;SDS011;42916;54.346;18.562;2023-02-28T09:28:54;20.70;;;10.30;;
57023;SDS011;42916;54.346;18.562;2023-02-28T09:31:23;21.30;;;10.40;;
57023;SDS011;42916;54.346;18.562;2023-02-28T09:36:20;25.50;;;11.60;;
57023;SDS011;42916;54.346;18.562;2023-02-28T09:38:49;18.70;;;8.70;;
57023;SDS011;42916;54.346;18.562;2023-02-28T09:41:21;21.00;;;9.00;;
57023;SDS011;42916;54.346;18.562;2023-02-28T09:43:58;19.60;;;8.60;;
57023;SDS011;42916;54.346;18.562;2023-02-28T09:46:33;17.40;;;8.50;;
57023;SDS011;42916;54.346;18.562;2023-02-28T09:49:28;18.30;;;8.70;;
57023;SDS011;42916;54.346;18.562;2023-02-28T09:52:05;17.90;;;8.30;;
57023;SDS011;42916;54.346;18.562;2023-02-28T09:54:36;14.40;;;8.20;;
57023;SDS011;42916;54.346;18.562;2023-02-28T10:02:51;13.70;;;6.10;;
57023;SDS011;42916;54.346;18.562;2023-02-28T10:05:26;10.90;;;5.80;;
57023;SDS011;42916;54.346;18.562;2023-02-28T10:08:10;10.00;;;5.40;;
57023;SDS011;42916;54.346;18.562;2023-02-28T10:10:44;7.60;;;4.00;;
57023;SDS011;42916;54.346;18.562;2023-02-28T10:13:21;9.10;;;4.30;;
57023;SDS011;42916;54.346;18.562;2023-02-28T10:15:51;9.80;;;4.70;;
57023;SDS011;42916;54.346;18.562;2023-02-28T10:18:24;12.10;;;4.50;;
57023;SDS011;42916;54.346;18.562;2023-02-28T10:20:57;9.40;;;4.70;;
57023;SDS011;42916;54.346;18.562;2023-02-28T10:26:05;12.90;;;5.10;;
57023;SDS011;42916;54.346;18.562;2023-02-28T10:28:37;10.50;;;4.90;;
57023;SDS011;42916;54.346;18.562;2023-02-28T10:31:04;11.00;;;4.90;;
57023;SDS011;42916;54.346;18.562;2023-02-28T10:33:33;13.40;;;5.70;;
57023;SDS011;42916;54.346;18.562;2023-02-28T10:36:02;12.30;;;6.00;;
57023;SDS011;42916;54.346;18.562;2023-02-28T10:41:06;12.80;;;5.70;;
57023;SDS011;42916;54.346;18.562;2023-02-28T10:43:38;15.30;;;6.10;;
57023;SDS011;42916;54.346;18.562;2023-02-28T10:48:37;13.90;;;6.60;;
57023;SDS011;42916;54.346;18.562;2023-02-28T10:51:13;11.90;;;7.20;;
57023;SDS011;42916;54.346;18.562;2023-02-28T10:58:56;12.20;;;5.70;;
57023;SDS011;42916;54.346;18.562;2023-02-28T11:01:49;10.90;;;6.00;;
57023;SDS011;42916;54.346;18.562;2023-02-28T11:04:40;9.80;;;5.20;;
57023;SDS011;42916;54.346;18.562;2023-02-28T11:07:16;11.50;;;5.10;;
57023;SDS011;42916;54.346;18.562;2023-02-28T11:09:47;9.00;;;4.10;;
57023;SDS011;42916;54.346;18.562;2023-02-28T11:12:23;8.00;;;4.20;;
57023;SDS011;42916;54.346;18.562;2023-02-28T11:14:55;10.30;;;4.20;;
57023;SDS011;42916;54.346;18.562;2023-02-28T11:17:29;10.40;;;4.60;;
57023;SDS011;42916;54.346;18.562;2023-02-28T11:19:58;9.90;;;4.80;;
57023;SDS011;42916;54.346;18.562;2023-02-28T11:22:31;10.30;;;5.20;;
57023;SDS011;42916;54.346;18.562;2023-02-28T11:25:06;9.20;;;4.70;;
57023;SDS011;42916;54.346;18.562;2023-02-28T11:30:04;9.10;;;4.30;;
57023;SDS011;42916;54.346;18.562;2023-02-28T11:32:49;7.10;;;3.00;;
57023;SDS011;42916;54.346;18.562;2023-02-28T11:35:22;8.90;;;2.90;;
57023;SDS011;42916;54.346;18.562;2023-02-28T11:38:09;6.90;;;2.60;;
57023;SDS011;42916;54.346;18.562;2023-02-28T11:40:43;6.40;;;2.70;;
57023;SDS011;42916;54.346;18.562;2023-02-28T11:46:14;9.10;;;3.00;;
57023;SDS011;42916;54.346;18.562;2023-02-28T11:49:02;5.50;;;2.60;;
57023;SDS011;42916;54.346;18.562;2023-02-28T11:51:59;6.00;;;2.50;;
57023;SDS011;42916;54.346;18.562;2023-02-28T11:57:36;5.00;;;2.50;;
57023;SDS011;42916;54.346;18.562;2023-02-28T12:11:27;5.10;;;2.40;;
57023;SDS011;42916;54.346;18.562;2023-02-28T12:19:32;3.90;;;2.50;;
57023;SDS011;42916;54.346;18.562;2023-02-28T12:22:34;5.50;;;2.80;;
57023;SDS011;42916;54.346;18.562;2023-02-28T12:27:37;4.40;;;2.60;;
57023;SDS011;42916;54.346;18.562;2023-02-28T12:33:03;5.60;;;2.80;;
57023;SDS011;42916;54.346;18.562;2023-02-28T12:35:46;5.00;;;2.60;;
57023;SDS011;42916;54.346;18.562;2023-02-28T12:38:26;4.40;;;2.30;;
57023;SDS011;42916;54.346;18.562;2023-02-28T12:41:05;4.10;;;2.60;;
57023;SDS011;42916;54.346;18.562;2023-02-28T12:43:47;4.80;;;2.60;;
57023;SDS011;42916;54.346;18.562;2023-02-28T12:46:28;4.30;;;2.40;;
57023;SDS011;42916;54.346;18.562;2023-02-28T12:49:09;4.70;;;2.40;;
57023;SDS011;42916;54.346;18.562;2023-02-28T12:51:42;3.70;;;2.30;;
57023;SDS011;42916;54.346;18.562;2023-02-28T13:00:16;4.30;;;2.10;;
57023;SDS011;42916;54.346;18.562;2023-02-28T13:05:32;4.00;;;1.90;;
57023;SDS011;42916;54.346;18.562;2023-02-28T13:10:44;5.20;;;2.10;;
57023;SDS011;42916;54.346;18.562;2023-02-28T13:13:18;5.40;;;2.60;;
57023;SDS011;42916;54.346;18.562;2023-02-28T13:16:00;4.70;;;1.90;;
57023;SDS011;42916;54.346;18.562;2023-02-28T13:18:31;5.50;;;2.30;;
57023;SDS011;42916;54.346;18.562;2023-02-28T13:21:04;3.60;;;2.10;;
57023;SDS011;42916;54.346;18.562;2023-02-28T13:26:17;4.40;;;1.80;;
57023;SDS011;42916;54.346;18.562;2023-02-28T13:31:19;5.20;;;2.10;;
57023;SDS011;42916;54.346;18.562;2023-02-28T13:38:44;4.70;;;2.60;;
57023;SDS011;42916;54.346;18.562;2023-02-28T13:44:03;4.20;;;2.30;;
57023;SDS011;42916;54.346;18.562;2023-02-28T13:51:50;7.20;;;3.10;;
57023;SDS011;42916;54.346;18.562;2023-02-28T14:00:44;5.00;;;2.90;;
57023;SDS011;42916;54.346;18.562;2023-02-28T14:08:55;5.10;;;2.50;;
57023;SDS011;42916;54.346;18.562;2023-02-28T14:14:04;4.80;;;3.10;;
57023;SDS011;42916;54.346;18.562;2023-02-28T14:16:44;4.70;;;3.00;;
57023;SDS011;42916;54.346;18.562;2023-02-28T14:27:50;7.20;;;3.30;;
57023;SDS011;42916;54.346;18.562;2023-02-28T14:36:07;7.70;;;3.60;;
57023;SDS011;42916;54.346;18.562;2023-02-28T14:41:15;6.80;;;3.30;;
57023;SDS011;42916;54.346;18.562;2023-02-28T14:43:50;9.20;;;4.30;;
57023;SDS011;42916;54.346;18.562;2023-02-28T14:46:37;9.70;;;4.00;;
57023;SDS011;42916;54.346;18.562;2023-02-28T14:49:07;9.00;;;3.80;;
57023;SDS011;42916;54.346;18.562;2023-02-28T14:51:42;9.90;;;4.70;;
57023;SDS011;42916;54.346;18.562;2023-02-28T14:54:12;8.40;;;4.40;;
57023;SDS011;42916;54.346;18.562;2023-02-28T14:56:42;7.60;;;4.50;;
57023;SDS011;42916;54.346;18.562;2023-02-28T14:59:22;9.50;;;4.10;;
57023;SDS011;42916;54.346;18.562;2023-02-28T15:07:46;8.00;;;4.10;;
57023;SDS011;42916;54.346;18.562;2023-02-28T15:10:17;6.50;;;3.70;;
57023;SDS011;42916;54.346;18.562;2023-02-28T15:12:56;6.30;;;3.80;;
57023;SDS011;42916;54.346;18.562;2023-02-28T15:15:33;13.00;;;4.80;;
57023;SDS011;42916;54.346;18.562;2023-02-28T15:18:14;9.40;;;4.40;;
57023;SDS011;42916;54.346;18.562;2023-02-28T15:20:48;10.60;;;4.80;;
57023;SDS011;42916;54.346;18.562;2023-02-28T15:23:15;9.40;;;4.60;;
57023;SDS011;42916;54.346;18.562;2023-02-28T15:25:44;8.40;;;4.70;;
57023;SDS011;42916;54.346;18.562;2023-02-28T15:28:12;11.80;;;4.70;;
57023;SDS011;42916;54.346;18.562;2023-02-28T15:30:50;11.00;;;5.10;;
57023;SDS011;42916;54.346;18.562;2023-02-28T15:33:21;12.50;;;5.10;;
57023;SDS011;42916;54.346;18.562;2023-02-28T15:35:50;11.90;;;4.80;;
57023;SDS011;42916;54.346;18.562;2023-02-28T15:38:18;13.90;;;5.10;;
57023;SDS011;42916;54.346;18.562;2023-02-28T15:40:51;12.00;;;5.50;;
57023;SDS011;42916;54.346;18.562;2023-02-28T15:43:33;11.50;;;5.00;;
57023;SDS011;42916;54.346;18.562;2023-02-28T15:46:03;13.00;;;5.10;;
57023;SDS011;42916;54.346;18.562;2023-02-28T15:48:37;12.50;;;4.80;;
57023;SDS011;42916;54.346;18.562;2023-02-28T15:53:50;11.50;;;5.40;;
57023;SDS011;42916;54.346;18.562;2023-02-28T15:59:04;12.70;;;6.00;;
57023;SDS011;42916;54.346;18.562;2023-02-28T16:01:34;17.50;;;7.50;;
57023;SDS011;42916;54.346;18.562;2023-02-28T16:04:21;20.70;;;8.80;;
57023;SDS011;42916;54.346;18.562;2023-02-28T16:09:26;24.70;;;10.00;;
57023;SDS011;42916;54.346;18.562;2023-02-28T16:11:54;23.00;;;11.40;;
57023;SDS011;42916;54.346;18.562;2023-02-28T16:14:26;25.40;;;11.70;;
57023;SDS011;42916;54.346;18.562;2023-02-28T16:17:01;25.60;;;11.70;;
57023;SDS011;42916;54.346;18.562;2023-02-28T16:19:31;30.00;;;13.10;;
57023;SDS011;42916;54.346;18.562;2023-02-28T16:21:58;27.40;;;12.30;;
57023;SDS011;42916;54.346;18.562;2023-02-28T16:24:25;24.70;;;11.50;;
57023;SDS011;42916;54.346;18.562;2023-02-28T16:26:53;26.60;;;11.80;;
57023;SDS011;42916;54.346;18.562;2023-02-28T16:29:27;22.40;;;12.00;;
57023;SDS011;42916;54.346;18.562;2023-02-28T16:32:01;28.60;;;13.00;;
57023;SDS011;42916;54.346;18.562;2023-02-28T16:34:31;28.00;;;12.20;;
57023;SDS011;42916;54.346;18.562;2023-02-28T16:36:58;25.80;;;11.50;;
57023;SDS011;42916;54.346;18.562;2023-02-28T16:39:25;23.20;;;10.30;;
57023;SDS011;42916;54.346;18.562;2023-02-28T16:41:52;21.60;;;11.10;;
57023;SDS011;42916;54.346;18.562;2023-02-28T16:44:33;24.10;;;10.00;;
57023;SDS011;42916;54.346;18.562;2023-02-28T16:47:02;23.20;;;10.90;;
57023;SDS011;42916;54.346;18.562;2023-02-28T16:49:30;24.20;;;10.10;;
57023;SDS011;42916;54.346;18.562;2023-02-28T16:51:57;22.30;;;10.00;;
57023;SDS011;42916;54.346;18.562;2023-02-28T16:54:24;21.60;;;10.00;;
57023;SDS011;42916;54.346;18.562;2023-02-28T16:56:52;28.60;;;11.40;;
57023;SDS011;42916;54.346;18.562;2023-02-28T16:59:22;28.40;;;12.60;;
57023;SDS011;42916;54.346;18.562;2023-02-28T17:01:51;27.40;;;11.30;;
57023;SDS011;42916;54.346;18.562;2023-02-28T17:04:18;24.20;;;9.80;;
57023;SDS011;42916;54.346;18.562;2023-02-28T17:06:45;21.50;;;10.40;;
57023;SDS011;42916;54.346;18.562;2023-02-28T17:09:17;24.20;;;9.50;;
57023;SDS011;42916;54.346;18.562;2023-02-28T17:11:46;16.70;;;7.70;;
57023;SDS011;42916;54.346;18.562;2023-02-28T17:14:14;15.30;;;7.60;;
57023;SDS011;42916;54.346;18.562;2023-02-28T17:16:42;20.00;;;8.10;;
57023;SDS011;42916;54.346;18.562;2023-02-28T17:19:11;19.50;;;8.60;;
57023;SDS011;42916;54.346;18.562;2023-02-28T17:21:39;19.00;;;8.80;;